Time;durP1;ratioP1;P1;durP2;ratioP2;P2;SDS_P1;SDS_P2;PMS_P1;PMS_P2;Temp;Humidity;BMP_temperature;BMP_pressure;BME280_temperature;BME280_humidity;BME280_pressure;Samples;Min_cycle;Max_cycle;Signal;HPM_P1;HPM_P2
2022/04/24 00:00:09;;;;;;;0.30;0.30;;;;;;;2.12;32.28;98631.19;5070445;28;20032;-62
2022/04/24 00:02:39;;;;;;;4.00;1.45;;;;;;;2.14;32.17;98633.72;5070264;28;20039;-62
2022/04/24 00:05:07;;;;;;;0.77;0.68;;;;;;;2.14;32.16;98629.13;5070039;28;20040;-62
2022/04/24 00:07:37;;;;;;;0.20;0.20;;;;;;;2.15;32.38;98620.00;5070400;28;20036;-60
2022/04/24 00:10:05;;;;;;;0.40;0.30;;;;;;;2.17;32.25;98634.19;5053923;28;20040;-62
2022/04/24 00:12:33;;;;;;;1.90;1.13;;;;;;;2.19;32.16;98629.41;5070335;28;20071;-62
2022/04/24 00:15:01;;;;;;;0.20;0.20;;;;;;;2.18;32.17;98625.03;5070190;28;20043;-62
2022/04/24 00:17:30;;;;;;;1.02;0.85;;;;;;;2.18;32.35;98625.03;5070182;28;20037;-61
2022/04/24 00:19:57;;;;;;;0.38;0.38;;;;;;;2.23;32.27;98621.78;5070319;28;20132;-59
2022/04/24 00:22:25;;;;;;;0.50;0.50;;;;;;;2.23;32.24;98617.19;5070347;28;20038;-60
2022/04/24 00:24:51;;;;;;;0.43;0.43;;;;;;;2.29;32.22;98618.31;5071980;28;20051;-61
2022/04/24 00:27:20;;;;;;;0.40;0.40;;;;;;;2.35;32.21;98614.84;5070236;28;20055;-61
2022/04/24 00:29:48;;;;;;;0.30;0.30;;;;;;;2.41;32.13;98619.50;5070161;28;20056;-61
2022/04/24 00:32:16;;;;;;;0.43;0.43;;;;;;;2.45;32.09;98612.69;5070276;28;20406;-61
2022/04/24 00:34:43;;;;;;;0.73;0.73;;;;;;;2.52;31.96;98617.34;5069584;28;20379;-61
2022/04/24 00:37:10;;;;;;;3.80;1.42;;;;;;;2.59;31.99;98618.28;5070055;28;20029;-61
2022/04/24 00:39:38;;;;;;;0.20;0.20;;;;;;;2.64;31.83;98607.75;5070052;28;20037;-61
2022/04/24 00:42:09;;;;;;;0.57;0.57;;;;;;;2.73;31.89;98605.78;5070105;28;20040;-61
2022/04/24 00:44:37;;;;;;;0.45;0.45;;;;;;;2.78;31.82;98615.03;5070245;28;20448;-60
2022/04/24 00:47:16;;;;;;;0.25;0.25;;;;;;;2.88;31.83;98600.31;5070002;28;20060;-62
2022/04/24 00:49:46;;;;;;;1.33;0.60;;;;;;;2.95;31.53;98601.22;5070109;28;20456;-61
2022/04/24 00:52:15;;;;;;;0.60;0.60;;;;;;;3.04;31.60;98600.06;5069988;28;20041;-61
2022/04/24 00:54:44;;;;;;;0.35;0.35;;;;;;;3.14;31.42;98599.78;5069882;28;20040;-61
2022/04/24 00:57:14;;;;;;;0.60;0.60;;;;;;;3.21;31.32;98588.97;5069674;28;20029;-61
2022/04/24 00:59:41;;;;;;;0.40;0.40;;;;;;;3.31;31.42;98598.50;5069593;28;20131;-61
2022/04/24 01:02:12;;;;;;;0.57;0.43;;;;;;;3.41;31.37;98600.03;5069539;28;20036;-60
2022/04/24 01:04:38;;;;;;;24.75;1.23;;;;;;;3.50;31.28;98591.59;5069208;28;20437;-60
2022/04/24 01:07:06;;;;;;;0.90;0.65;;;;;;;3.62;31.30;98594.63;5069919;28;20135;-61
2022/04/24 01:09:35;;;;;;;0.35;0.35;;;;;;;3.72;31.07;98594.25;5069742;28;20036;-59
2022/04/24 01:12:04;;;;;;;0.50;0.50;;;;;;;3.83;31.02;98593.72;5069536;28;20060;-61
2022/04/24 01:14:33;;;;;;;0.65;0.65;;;;;;;3.95;31.03;98588.59;5069521;28;20071;-61
2022/04/24 01:17:01;;;;;;;0.30;0.30;;;;;;;4.08;31.05;98589.72;5069748;28;20123;-61
2022/04/24 01:19:28;;;;;;;1.40;1.30;;;;;;;4.23;30.71;98584.19;5070635;28;20040;-62
2022/04/24 01:21:58;;;;;;;0.40;0.40;;;;;;;4.42;30.73;98593.47;5073150;28;20047;-61
2022/04/24 01:24:28;;;;;;;0.30;0.30;;;;;;;4.72;30.47;98589.47;5073723;28;20380;-62
2022/04/24 01:26:56;;;;;;;0.30;0.30;;;;;;;5.70;29.44;98593.69;5074740;28;20043;-61
2022/04/24 01:29:24;;;;;;;0.40;0.40;;;;;;;7.87;27.24;98575.25;5072994;28;20032;-61
2022/04/24 01:31:52;;;;;;;0.65;0.65;;;;;;;10.11;25.04;98570.06;5073320;28;20552;-62
2022/04/24 01:34:22;;;;;;;0.57;0.57;;;;;;;12.39;23.44;98577.00;5072726;28;20035;-62
2022/04/24 01:36:50;;;;;;;0.63;0.55;;;;;;;14.36;21.95;98570.63;5073080;28;20036;-61
2022/04/24 01:39:18;;;;;;;0.20;0.20;;;;;;;15.79;21.54;98559.63;5072868;28;20051;-61
2022/04/24 01:41:48;;;;;;;0.40;0.40;;;;;;;16.81;20.92;98561.44;5073232;28;20036;-61
2022/04/24 01:44:16;;;;;;;0.20;0.20;;;;;;;17.71;20.99;98564.38;5072727;28;20123;-61
2022/04/24 01:46:45;;;;;;;0.20;0.20;;;;;;;18.50;20.72;98567.09;5072525;28;20406;-60
2022/04/24 01:49:17;;;;;;;0.20;0.20;;;;;;;18.76;21.00;98556.53;5072716;28;20032;-62
2022/04/24 01:51:48;;;;;;;0.20;0.20;;;;;;;19.03;21.05;98560.72;5072695;28;20098;-62
2022/04/24 01:54:14;;;;;;;0.20;0.20;;;;;;;19.26;21.38;98562.66;5074198;28;20036;-62
2022/04/24 01:56:44;;;;;;;0.50;0.50;;;;;;;19.19;21.56;98559.38;5072531;28;20020;-62
2022/04/24 01:59:12;;;;;;;0.20;0.20;;;;;;;18.79;22.22;98553.16;5072683;28;20033;-61
2022/04/24 02:01:41;;;;;;;0.22;0.22;;;;;;;18.30;22.94;98560.63;5072695;28;20036;-61
2022/04/24 02:04:09;;;;;;;0.30;0.30;;;;;;;17.81;23.14;98551.25;5072279;28;20125;-62
2022/04/24 02:06:39;;;;;;;0.40;0.40;;;;;;;17.12;24.04;98562.22;5072632;28;20127;-63
2022/04/24 02:09:06;;;;;;;0.30;0.30;;;;;;;16.60;24.40;98552.38;5072565;28;20943;-61
2022/04/24 02:11:34;;;;;;;0.45;0.45;;;;;;;16.17;25.12;98551.91;5072201;28;20106;-61
2022/04/24 02:14:01;;;;;;;0.28;0.25;;;;;;;16.07;25.02;98556.31;5072449;28;20052;-60
2022/04/24 02:16:30;;;;;;;0.30;0.30;;;;;;;16.14;24.91;98555.22;5072459;28;20025;-61
2022/04/24 02:18:59;;;;;;;0.38;0.38;;;;;;;16.17;24.62;98544.41;5072436;28;20029;-61
2022/04/24 02:21:27;;;;;;;0.47;0.47;;;;;;;16.18;24.88;98553.53;5072223;28;20024;-61
2022/04/24 02:23:54;;;;;;;0.30;0.30;;;;;;;16.33;24.45;98553.53;5073141;28;20119;-64
2022/04/24 02:26:21;;;;;;;0.22;0.22;;;;;;;16.58;24.41;98549.88;5072140;28;20029;-66
2022/04/24 02:28:48;;;;;;;0.17;0.17;;;;;;;16.98;23.87;98561.16;5072059;28;20036;-64
2022/04/24 02:31:15;;;;;;;0.20;0.20;;;;;;;17.65;23.35;98563.59;5071816;28;20055;-64
2022/04/24 02:33:42;;;;;;;0.30;0.30;;;;;;;18.25;22.60;98566.22;5071518;28;20033;-66
2022/04/24 02:36:09;;;;;;;0.75;0.75;;;;;;;18.74;22.24;98567.97;5071909;28;20029;-65
2022/04/24 02:38:37;;;;;;;0.52;0.52;;;;;;;19.11;22.07;98560.06;5070873;28;20140;-64
2022/04/24 02:41:06;;;;;;;0.25;0.25;;;;;;;19.29;22.06;98560.38;5070116;28;20050;-65
2022/04/24 02:43:34;;;;;;;0.50;0.50;;;;;;;19.67;21.75;98557.63;5071862;28;20064;-63
2022/04/24 02:46:01;;;;;;;0.38;0.30;;;;;;;20.02;21.69;98561.03;5071625;28;20127;-67
2022/04/24 02:48:28;;;;;;;0.60;0.60;;;;;;;20.25;21.51;98553.69;5072370;28;20028;-62
2022/04/24 02:50:57;;;;;;;0.70;0.52;;;;;;;20.50;21.50;98548.78;5072895;28;20459;-63
2022/04/24 02:53:25;;;;;;;0.20;0.20;;;;;;;20.70;21.23;98550.38;5071777;28;20040;-63
2022/04/24 02:55:53;;;;;;;0.50;0.50;;;;;;;21.03;21.14;98553.09;5085623;28;20063;-63
2022/04/24 02:58:21;;;;;;;0.20;0.20;;;;;;;21.50;20.79;98553.78;5065438;28;20412;-62
2022/04/24 03:00:51;;;;;;;0.30;0.30;;;;;;;21.48;21.01;98550.44;5064177;28;20040;-62
2022/04/24 03:03:20;;;;;;;0.20;0.20;;;;;;;21.58;20.93;98555.84;5072712;28;20094;-62
2022/04/24 03:05:53;;;;;;;0.30;0.30;;;;;;;21.95;20.56;98542.72;5070509;28;20131;-65
2022/04/24 03:08:21;;;;;;;0.20;0.20;;;;;;;22.55;20.28;98549.84;5070628;28;20047;-63
2022/04/24 03:10:50;;;;;;;0.20;0.20;;;;;;;23.43;19.66;98550.22;5070379;28;20028;-64
2022/04/24 03:13:21;;;;;;;0.30;0.30;;;;;;;25.55;18.38;98550.31;5070445;28;20398;-64
2022/04/24 03:15:49;;;;;;;0.10;0.10;;;;;;;26.95;17.60;98545.38;5070714;28;20037;-62
2022/04/24 03:18:18;;;;;;;0.10;0.10;;;;;;;27.82;17.00;98551.81;5070773;28;20047;-63
2022/04/24 03:20:46;;;;;;;0.10;0.10;;;;;;;28.42;17.02;98547.13;5070370;28;20032;-63
2022/04/24 03:23:15;;;;;;;0.20;0.20;;;;;;;29.13;17.12;98549.41;5069539;28;20032;-63
2022/04/24 03:25:45;;;;;;;0.10;0.10;;;;;;;29.93;16.65;98535.97;5067328;28;20055;-66
2022/04/24 03:28:16;;;;;;;0.20;0.20;;;;;;;30.52;16.57;98547.28;5069686;28;20040;-65
2022/04/24 03:30:46;;;;;;;0.20;0.20;;;;;;;30.89;16.63;98541.91;5069946;28;20040;-63
2022/04/24 03:33:16;;;;;;;0.10;0.10;;;;;;;30.95;16.88;98538.75;5067845;28;20032;-66
2022/04/24 03:35:46;;;;;;;0.35;0.35;;;;;;;31.04;16.97;98537.34;5070005;28;20028;-65
2022/04/24 03:38:13;;;;;;;0.20;0.20;;;;;;;31.41;16.81;98542.38;5070258;28;20036;-65
2022/04/24 03:40:43;;;;;;;0.10;0.10;;;;;;;31.90;16.37;98539.88;5070105;28;20067;-66
2022/04/24 03:43:13;;;;;;;0.20;0.20;;;;;;;32.26;16.69;98538.34;5069263;28;20029;-61
2022/04/24 03:45:41;;;;;;;0.10;0.10;;;;;;;32.57;16.46;98546.78;5069757;28;20028;-62
2022/04/24 03:48:08;;;;;;;0.10;0.10;;;;;;;32.75;16.50;98539.31;5070334;28;20169;-61
2022/04/24 03:50:37;;;;;;;0.20;0.20;;;;;;;32.67;16.81;98537.59;5070367;28;20036;-63
2022/04/24 03:53:07;;;;;;;0.15;0.15;;;;;;;32.92;16.53;98528.50;5062926;28;20091;-62
2022/04/24 03:55:35;;;;;;;0.20;0.20;;;;;;;33.30;16.66;98529.25;5068588;28;20527;-62
2022/04/24 03:58:05;;;;;;;0.20;0.20;;;;;;;33.55;16.34;98531.44;5068990;28;20039;-62
2022/04/24 04:00:32;;;;;;;0.28;0.28;;;;;;;33.59;16.45;98529.44;5069049;28;20048;-61
2022/04/24 04:03:02;;;;;;;0.10;0.10;;;;;;;33.42;16.59;98528.09;5068995;28;20070;-62
2022/04/24 04:05:35;;;;;;;0.10;0.10;;;;;;;33.30;16.82;98524.34;5068621;28;20037;-64
2022/04/24 04:08:03;;;;;;;0.30;0.30;;;;;;;33.55;16.54;98534.31;5068398;28;20040;-61
2022/04/24 04:10:30;;;;;;;0.30;0.30;;;;;;;33.88;16.62;98521.91;5069180;28;20033;-63
2022/04/24 04:13:35;;;;;;;0.20;0.20;;;;;;;34.07;16.10;98517.94;5068803;28;20511;-64
2022/04/24 04:16:01;;;;;;;0.20;0.20;;;;;;;33.94;16.80;98528.03;5060440;28;20047;-62
2022/04/24 04:18:27;;;;;;;0.20;0.20;;;;;;;34.34;15.98;98523.34;5066764;28;20032;-64
2022/04/24 04:20:53;;;;;;;1.65;0.40;;;;;;;34.92;15.74;98525.13;5069684;28;20040;-63
2022/04/24 04:23:18;;;;;;;0.50;0.50;;;;;;;35.36;15.77;98522.28;5062244;28;20032;-62
2022/04/24 04:25:44;;;;;;;0.10;0.10;;;;;;;35.59;15.82;98522.66;5069193;28;20498;-69
2022/04/24 04:28:10;;;;;;;0.13;0.10;;;;;;;35.63;15.80;98519.78;5068615;28;20033;-66
2022/04/24 04:30:37;;;;;;;1.02;0.30;;;;;;;35.92;15.47;98526.25;5066895;28;20122;-62
2022/04/24 04:33:02;;;;;;;0.20;0.20;;;;;;;36.05;15.77;98518.06;5068806;28;20033;-62
2022/04/24 04:35:28;;;;;;;0.43;0.40;;;;;;;35.86;15.67;98527.91;5065740;28;20074;-61
2022/04/24 04:37:54;;;;;;;0.20;0.20;;;;;;;35.54;16.16;98510.84;5069386;28;20043;-62
2022/04/24 04:40:22;;;;;;;0.65;0.30;;;;;;;35.32;16.10;98510.06;5070058;28;20035;-61
2022/04/24 04:42:49;;;;;;;0.43;0.43;;;;;;;34.82;16.27;98505.97;5070401;28;20688;-65
2022/04/24 04:45:16;;;;;;;0.20;0.20;;;;;;;34.03;17.33;98517.09;5069257;28;20509;-62
2022/04/24 04:47:42;;;;;;;0.10;0.10;;;;;;;33.37;17.38;98520.75;5069322;28;20082;-65
2022/04/24 04:50:08;;;;;;;0.40;0.40;;;;;;;32.57;17.80;98519.19;5070529;28;20020;-66
2022/04/24 04:52:35;;;;;;;1.17;0.47;;;;;;;31.01;18.86;98514.63;5070513;28;20081;-63
2022/04/24 04:55:01;;;;;;;1.33;1.05;;;;;;;28.71;20.44;98510.38;5072971;28;20044;-62
2022/04/24 04:57:27;;;;;;;1.90;1.55;;;;;;;26.29;22.05;98514.13;5074319;28;20040;-67
2022/04/24 04:59:53;;;;;;;2.05;1.85;;;;;;;24.43;23.42;98513.94;5072709;28;20047;-62
2022/04/24 05:02:18;;;;;;;2.38;2.17;;;;;;;22.99;24.11;98519.25;5074375;28;20044;-62
2022/04/24 05:04:44;;;;;;;1.35;1.25;;;;;;;21.76;24.67;98511.28;5073760;28;20032;-63
2022/04/24 05:07:13;;;;;;;2.30;2.10;;;;;;;20.93;24.88;98510.28;5074182;28;20040;-62
2022/04/24 05:09:40;;;;;;;2.42;1.67;;;;;;;20.28;25.02;98511.25;5074304;28;20032;-65
2022/04/24 05:12:09;;;;;;;4.60;1.95;;;;;;;19.63;25.02;98510.06;5072820;28;20115;-65
2022/04/24 05:14:35;;;;;;;3.15;1.75;;;;;;;18.94;25.28;98524.38;5073876;28;20037;-64
2022/04/24 05:17:00;;;;;;;2.75;2.50;;;;;;;18.48;25.22;98520.13;5073852;28;20410;-63
2022/04/24 05:19:26;;;;;;;2.13;1.90;;;;;;;18.23;24.89;98512.03;5072624;28;20039;-67
2022/04/24 05:21:54;;;;;;;1.38;1.23;;;;;;;17.99;24.43;98512.81;5073156;28;20045;-65
2022/04/24 05:24:23;;;;;;;1.25;1.20;;;;;;;17.80;24.46;98518.22;5073075;28;20051;-61
2022/04/24 05:26:50;;;;;;;4.97;2.17;;;;;;;17.66;24.11;98518.06;5072593;28;20032;-63
2022/04/24 05:29:17;;;;;;;1.60;1.27;;;;;;;17.44;24.17;98515.72;5074056;28;20111;-66
2022/04/24 05:31:43;;;;;;;3.92;1.95;;;;;;;17.23;23.90;98510.28;5072395;28;20490;-64
2022/04/24 05:34:09;;;;;;;1.35;1.25;;;;;;;17.15;23.97;98514.50;5072261;28;20032;-67
2022/04/24 05:36:34;;;;;;;4.40;1.60;;;;;;;17.09;23.71;98523.97;5071418;28;20467;-65
2022/04/24 05:39:01;;;;;;;6.03;1.75;;;;;;;17.05;23.36;98516.47;5074269;28;20047;-65
2022/04/24 05:41:26;;;;;;;3.08;1.27;;;;;;;17.03;23.23;98513.16;5073490;28;20037;-63
2022/04/24 05:43:52;;;;;;;1.60;1.50;;;;;;;16.96;23.06;98519.84;5072122;28;20146;-65
2022/04/24 05:46:18;;;;;;;1.08;0.98;;;;;;;16.96;23.00;98513.44;5073402;28;20020;-64
2022/04/24 05:48:43;;;;;;;1.50;1.40;;;;;;;16.98;23.15;98511.25;5072089;28;20086;-64
2022/04/24 05:51:09;;;;;;;1.85;1.10;;;;;;;17.00;22.67;98509.00;5073268;28;20110;-65
2022/04/24 05:53:35;;;;;;;0.90;0.90;;;;;;;17.01;23.00;98510.66;5064558;28;20028;-66
2022/04/24 05:56:00;;;;;;;0.90;0.90;;;;;;;17.04;22.57;98510.09;5052358;28;20028;-66
2022/04/24 05:58:26;;;;;;;0.77;0.77;;;;;;;17.21;22.55;98503.34;5053184;28;20041;-62
2022/04/24 06:00:52;;;;;;;0.60;0.60;;;;;;;17.31;22.20;98504.13;5053274;28;20403;-62
2022/04/24 06:03:21;;;;;;;2.92;1.27;;;;;;;17.39;22.14;98499.91;5063557;28;20036;-65
2022/04/24 06:05:48;;;;;;;0.60;0.60;;;;;;;17.58;21.92;98496.44;5071924;28;20491;-64
2022/04/24 06:08:15;;;;;;;0.95;0.90;;;;;;;17.67;21.89;98492.78;5071530;28;20519;-62
2022/04/24 06:10:43;;;;;;;0.43;0.43;;;;;;;17.67;21.75;98497.50;5072482;28;20400;-63
2022/04/24 06:13:08;;;;;;;0.68;0.63;;;;;;;17.74;21.94;98488.84;5052494;28;20120;-67
2022/04/24 06:15:34;;;;;;;0.38;0.38;;;;;;;17.73;21.82;98481.66;5052856;28;20112;-64
2022/04/24 06:18:00;;;;;;;0.85;0.30;;;;;;;17.76;21.87;98487.44;5052480;28;20040;-65
2022/04/24 06:20:28;;;;;;;0.55;0.55;;;;;;;17.77;21.55;98482.69;5051232;28;20087;-64
2022/04/24 06:22:55;;;;;;;0.65;0.65;;;;;;;17.82;21.64;98475.16;5051654;28;20442;-66
2022/04/24 06:25:24;;;;;;;0.28;0.28;;;;;;;17.92;21.60;98473.44;5052541;28;20037;-63
2022/04/24 06:27:53;;;;;;;0.50;0.50;;;;;;;17.95;21.57;98475.66;5051982;28;20044;-66
2022/04/24 06:30:22;;;;;;;0.20;0.20;;;;;;;18.01;21.53;98477.25;5051803;28;20036;-66
2022/04/24 06:32:48;;;;;;;0.20;0.20;;;;;;;18.09;21.43;98475.78;5051703;28;20039;-65
2022/04/24 06:35:16;;;;;;;0.40;0.40;;;;;;;18.11;21.26;98474.38;5051128;28;20024;-64
2022/04/24 06:37:46;;;;;;;0.30;0.30;;;;;;;18.17;21.52;98481.53;5051077;28;20059;-63
2022/04/24 06:40:14;;;;;;;1.55;1.10;;;;;;;18.18;21.38;98477.66;5052369;28;20047;-65
2022/04/24 06:43:08;;;;;;;1.85;0.93;;;;;;;18.11;21.54;98488.28;5050793;28;20513;-62
2022/04/24 06:45:42;;;;;;;1.35;0.60;;;;;;;18.13;21.35;98482.41;5049070;28;20044;-64
2022/04/24 06:48:10;;;;;;;0.60;0.50;;;;;;;18.22;21.19;98480.66;5053305;28;20102;-64
2022/04/24 06:50:38;;;;;;;1.95;0.63;;;;;;;18.31;21.28;98480.84;5052998;28;20033;-62
2022/04/24 06:53:06;;;;;;;1.95;1.33;;;;;;;18.39;21.01;98475.47;5052578;28;20106;-64
2022/04/24 06:55:35;;;;;;;0.35;0.35;;;;;;;18.26;21.29;98475.34;5052999;28;20029;-63
2022/04/24 06:58:01;;;;;;;6.30;0.65;;;;;;;18.06;21.72;98471.63;5052788;28;20164;-63
2022/04/24 07:00:29;;;;;;;2.40;0.30;;;;;;;17.82;21.75;98472.38;5053086;28;20040;-63
2022/04/24 07:02:54;;;;;;;0.10;0.10;;;;;;;17.60;21.82;98477.56;5051949;28;20048;-63
2022/04/24 07:05:25;;;;;;;0.73;0.73;;;;;;;17.37;22.15;98470.78;5050618;28;20033;-64
2022/04/24 07:07:51;;;;;;;0.43;0.43;;;;;;;17.28;22.30;98471.38;5052822;28;20091;-65
2022/04/24 07:10:18;;;;;;;0.30;0.30;;;;;;;17.28;22.05;98476.13;5051933;28;20511;-63
2022/04/24 07:12:48;;;;;;;0.40;0.40;;;;;;;17.21;22.26;98475.59;5069153;28;20071;-66
2022/04/24 07:15:14;;;;;;;2.00;1.13;;;;;;;17.16;22.22;98468.16;5072404;28;20021;-67
2022/04/24 07:17:42;;;;;;;0.43;0.43;;;;;;;17.13;22.24;98464.00;5071287;28;20032;-66
2022/04/24 07:20:09;;;;;;;0.60;0.60;;;;;;;17.17;22.19;98470.63;5072184;28;20028;-63
2022/04/24 07:23:03;;;;;;;1.65;0.50;;;;;;;17.38;22.10;98469.69;5072161;28;20406;-64
2022/04/24 07:25:33;;;;;;;0.25;0.25;;;;;;;17.47;21.62;98463.22;5070267;28;20032;-62
2022/04/24 07:27:59;;;;;;;0.25;0.25;;;;;;;17.57;21.74;98473.41;5071998;28;20119;-65
2022/04/24 07:30:25;;;;;;;0.28;0.28;;;;;;;17.65;21.83;98466.41;5072080;28;20150;-63
2022/04/24 07:32:56;;;;;;;0.65;0.52;;;;;;;17.78;21.57;98460.19;5071944;28;20107;-63
2022/04/24 07:35:30;;;;;;;0.40;0.30;;;;;;;17.80;21.75;98457.97;5071313;28;20024;-65
2022/04/24 07:37:56;;;;;;;0.45;0.45;;;;;;;17.76;21.64;98464.41;5072604;28;20501;-64
2022/04/24 07:40:23;;;;;;;0.22;0.22;;;;;;;17.78;21.82;98456.59;5072392;28;20113;-63
2022/04/24 07:42:57;;;;;;;2.53;0.90;;;;;;;17.79;21.57;98461.03;5072044;28;20033;-64
2022/04/24 07:45:24;;;;;;;0.63;0.60;;;;;;;17.72;21.87;98452.22;5070855;28;20032;-65
2022/04/24 07:47:51;;;;;;;0.13;0.13;;;;;;;17.63;21.96;98461.16;5071687;28;20025;-63
2022/04/24 07:50:20;;;;;;;0.30;0.30;;;;;;;17.58;21.83;98458.44;5072169;28;20616;-65
2022/04/24 07:52:47;;;;;;;0.20;0.20;;;;;;;17.58;21.93;98463.13;5072182;28;20530;-62
2022/04/24 07:55:17;;;;;;;0.30;0.28;;;;;;;17.52;21.87;98459.59;5071850;28;20045;-62
2022/04/24 07:57:45;;;;;;;0.20;0.20;;;;;;;17.52;21.69;98449.31;5072157;28;20448;-63
2022/04/24 08:00:12;;;;;;;0.30;0.30;;;;;;;17.59;21.76;98451.75;5072225;28;20039;-67
2022/04/24 08:03:08;;;;;;;0.30;0.30;;;;;;;17.52;21.75;98448.50;5072300;28;20050;-66
2022/04/24 08:05:42;;;;;;;0.70;0.25;;;;;;;17.41;22.05;98450.50;5059246;28;20131;-65
2022/04/24 08:08:18;;;;;;;0.52;0.52;;;;;;;17.37;21.99;98438.31;5071859;28;20554;-65
2022/04/24 08:10:49;;;;;;;0.45;0.45;;;;;;;17.30;21.84;98430.31;5071814;28;20040;-64
2022/04/24 08:13:30;;;;;;;0.30;0.30;;;;;;;17.36;21.95;98428.34;5072019;28;20486;-63
2022/04/24 08:15:57;;;;;;;0.20;0.20;;;;;;;17.33;22.10;98438.06;5041358;28;20561;-66
2022/04/24 08:18:23;;;;;;;0.30;0.30;;;;;;;17.32;21.85;98430.84;5051904;28;20158;-62
2022/04/24 08:20:49;;;;;;;1.75;0.98;;;;;;;17.32;21.86;98428.06;5051732;28;20123;-64
2022/04/24 08:23:16;;;;;;;3.00;1.40;;;;;;;17.18;22.07;98421.50;5051545;28;20036;-63
2022/04/24 08:25:42;;;;;;;0.88;0.88;;;;;;;17.06;22.10;98429.38;5051741;28;20499;-61
2022/04/24 08:28:10;;;;;;;0.30;0.30;;;;;;;16.87;22.27;98427.28;5052137;28;20048;-65
2022/04/24 08:30:38;;;;;;;0.63;0.63;;;;;;;16.72;22.54;98414.25;5055616;28;20114;-65
2022/04/24 08:33:04;;;;;;;6.65;2.28;;;;;;;16.61;22.42;98399.63;5055687;28;20033;-66
2022/04/24 08:35:31;;;;;;;0.30;0.30;;;;;;;16.40;22.56;98421.09;5055335;28;20040;-65
2022/04/24 08:37:56;;;;;;;0.30;0.30;;;;;;;16.27;22.64;98430.00;5055450;28;20043;-65
2022/04/24 08:40:24;;;;;;;0.80;0.77;;;;;;;16.20;22.72;98413.66;5054896;28;20451;-63
2022/04/24 08:42:54;;;;;;;0.40;0.40;;;;;;;16.10;22.91;98410.91;5054856;28;20124;-63
2022/04/24 08:45:27;;;;;;;17.55;0.80;;;;;;;16.01;22.65;98418.16;5055952;28;20039;-63
2022/04/24 08:47:54;;;;;;;0.20;0.20;;;;;;;16.00;22.93;98419.25;5064225;28;20039;-64
2022/04/24 08:50:20;;;;;;;1.38;1.27;;;;;;;16.02;22.79;98405.94;5057075;28;20540;-62
2022/04/24 08:53:26;;;;;;;1.15;1.05;;;;;;;16.01;22.93;98416.19;5052490;28;20180;-62
2022/04/24 08:56:11;;;;;;;;;;;;;;;15.90;22.94;98420.09;5040517;28;20119;-61
2022/04/24 08:58:36;;;;;;;;;;;;;;;15.82;22.96;98413.19;5049968;28;19920;-63
2022/04/24 09:01:02;;;;;;;0.85;0.57;;;;;;;15.80;22.82;98414.56;5075241;28;19970;-62
2022/04/24 09:03:28;;;;;;;0.75;0.40;;;;;;;15.83;22.82;98412.09;5070711;28;20406;-62
2022/04/24 09:05:53;;;;;;;0.15;0.15;;;;;;;15.88;22.49;98411.25;5055561;28;20040;-64
2022/04/24 09:08:24;;;;;;;0.10;0.10;;;;;;;15.94;22.71;98399.88;5063022;28;20141;-67
2022/04/24 09:10:50;;;;;;;1.65;1.40;;;;;;;16.03;22.69;98408.44;5060904;28;20035;-66
2022/04/24 09:14:24;;;;;;;0.25;0.25;;;;;;;16.11;22.63;98407.03;5055848;28;20406;-60
2022/04/24 09:16:33;;;;;;;0.38;0.38;;;;;;;16.15;22.68;98399.84;5054377;28;20037;-60
2022/04/24 09:19:21;;;;;;;0.20;0.20;;;;;;;16.26;22.30;98411.69;5050204;28;20600;-62
2022/04/24 09:21:51;;;;;;;0.28;0.28;;;;;;;16.34;22.07;98402.81;5054453;28;20118;-61
2022/04/24 09:24:17;;;;;;;0.20;0.20;;;;;;;16.45;22.21;98398.88;5054137;28;20036;-65
2022/04/24 09:26:56;;;;;;;0.10;0.10;;;;;;;16.61;21.94;98391.31;5051255;28;20028;-61
2022/04/24 09:29:23;;;;;;;0.30;0.30;;;;;;;16.73;22.03;98390.97;5053753;28;20510;-65
2022/04/24 09:31:50;;;;;;;0.20;0.20;;;;;;;16.85;22.14;98387.03;5052676;28;20033;-61
2022/04/24 09:34:19;;;;;;;0.25;0.25;;;;;;;16.95;21.86;98395.34;5051806;28;20045;-63
2022/04/24 09:36:46;;;;;;;0.15;0.15;;;;;;;17.07;22.08;98392.22;5052829;28;20040;-60
2022/04/24 09:39:12;;;;;;;0.47;0.47;;;;;;;17.16;22.06;98380.19;5050371;28;20055;-64
2022/04/24 09:41:41;;;;;;;4.18;0.95;;;;;;;17.30;21.92;98385.09;5051360;28;20499;-59
2022/04/24 09:44:16;;;;;;;0.73;0.73;;;;;;;17.37;21.71;98384.75;5050646;28;20030;-61
2022/04/24 09:46:41;;;;;;;0.10;0.10;;;;;;;17.47;21.80;98390.22;5049063;28;20115;-61
2022/04/24 09:49:09;;;;;;;0.20;0.20;;;;;;;17.61;21.60;98384.84;5051604;28;20049;-60
2022/04/24 09:51:42;;;;;;;0.20;0.20;;;;;;;17.71;21.50;98375.56;5051363;28;20099;-60
2022/04/24 09:54:09;;;;;;;0.68;0.68;;;;;;;17.79;21.45;98374.94;5047014;28;20029;-62
2022/04/24 09:56:35;;;;;;;0.13;0.13;;;;;;;17.86;21.48;98381.00;5049302;28;20033;-59
2022/04/24 09:59:02;;;;;;;0.20;0.20;;;;;;;17.92;21.35;98381.78;5050127;28;20113;-61
2022/04/24 10:01:27;;;;;;;1.17;0.55;;;;;;;17.92;21.55;98385.41;5048882;28;20094;-63
2022/04/24 10:03:54;;;;;;;0.20;0.20;;;;;;;17.99;21.61;98377.53;5050489;28;20040;-61
2022/04/24 10:06:22;;;;;;;1.67;0.60;;;;;;;18.04;21.70;98377.47;5051475;28;20510;-61
2022/04/24 10:08:50;;;;;;;0.20;0.20;;;;;;;18.08;21.58;98383.28;5050022;28;20059;-62
2022/04/24 10:11:16;;;;;;;0.70;0.70;;;;;;;18.04;21.61;98379.44;5050942;28;20075;-62
2022/04/24 10:13:57;;;;;;;0.52;0.52;;;;;;;18.18;21.53;98383.19;5052330;28;20033;-60
2022/04/24 10:16:37;;;;;;;0.20;0.20;;;;;;;18.29;21.44;98383.06;5049843;28;20087;-63
2022/04/24 10:20:00;;;;;;;0.50;0.50;;;;;;;18.41;21.42;98375.09;5050848;28;20479;-60
2022/04/24 10:22:39;;;;;;;0.55;0.40;;;;;;;18.49;21.36;98380.03;5039422;28;20065;-62
2022/04/24 10:25:07;;;;;;;0.17;0.17;;;;;;;18.60;21.11;98372.38;5029398;28;20037;-62
2022/04/24 10:27:39;;;;;;;0.68;0.68;;;;;;;18.70;21.27;98363.88;5033231;28;20126;-60
2022/04/24 10:30:06;;;;;;;0.40;0.40;;;;;;;18.82;21.03;98368.19;5045961;28;20393;-62
2022/04/24 10:32:32;;;;;;;0.40;0.40;;;;;;;18.93;20.92;98363.31;5036437;28;20040;-61
2022/04/24 10:34:59;;;;;;;0.20;0.20;;;;;;;18.87;21.18;98357.00;5042866;28;20035;-59
2022/04/24 10:37:32;;;;;;;0.43;0.43;;;;;;;18.76;21.23;98359.09;5036283;28;20071;-62
2022/04/24 10:40:00;;;;;;;3.40;0.77;;;;;;;18.68;21.31;98362.53;5045140;28;20025;-64
2022/04/24 10:42:31;;;;;;;0.43;0.43;;;;;;;18.58;21.63;98349.59;5045116;28;20155;-61
2022/04/24 10:45:07;;;;;;;0.20;0.20;;;;;;;18.53;21.43;98349.66;5049031;28;20387;-61
2022/04/24 10:47:45;;;;;;;0.30;0.30;;;;;;;18.39;21.72;98349.56;5041728;28;20032;-60
2022/04/24 10:50:11;;;;;;;0.35;0.35;;;;;;;18.30;21.76;98343.84;5038146;28;20183;-59
2022/04/24 10:52:42;;;;;;;0.30;0.30;;;;;;;18.25;21.82;98352.22;5040285;28;20041;-60
2022/04/24 10:55:12;;;;;;;0.73;0.73;;;;;;;18.21;21.82;98348.38;5050341;28;20047;-58
2022/04/24 10:57:54;;;;;;;0.20;0.20;;;;;;;18.09;21.94;98345.22;5050863;28;20044;-60
2022/04/24 11:00:26;;;;;;;0.80;0.63;;;;;;;18.02;22.23;98345.56;5050393;28;20039;-60
2022/04/24 11:02:52;;;;;;;0.10;0.10;;;;;;;17.93;22.15;98347.34;5048409;28;20135;-60
2022/04/24 11:05:20;;;;;;;0.50;0.50;;;;;;;17.93;22.19;98352.88;5050315;28;20040;-59
2022/04/24 11:07:47;;;;;;;3.83;0.95;;;;;;;17.97;22.15;98351.19;5050739;28;20115;-61
2022/04/24 11:10:16;;;;;;;0.40;0.40;;;;;;;17.96;22.19;98341.19;5050979;28;20032;-60
2022/04/24 11:12:42;;;;;;;0.50;0.50;;;;;;;17.88;21.97;98359.28;5049816;28;20509;-63
2022/04/24 11:15:12;;;;;;;0.40;0.40;;;;;;;17.93;21.87;98344.56;5050248;28;20215;-59
2022/04/24 11:17:39;;;;;;;0.32;0.32;;;;;;;18.03;21.94;98344.44;5051163;28;20495;-58
2022/04/24 11:20:09;;;;;;;0.15;0.15;;;;;;;18.04;22.02;98346.09;5051648;28;20065;-59
2022/04/24 11:22:51;;;;;;;0.20;0.20;;;;;;;17.94;22.05;98346.22;5052431;28;20102;-60
2022/04/24 11:25:19;;;;;;;0.30;0.30;;;;;;;17.83;22.17;98346.28;5052258;28;20078;-57
2022/04/24 11:27:49;;;;;;;0.32;0.32;;;;;;;17.82;22.05;98349.38;5049637;28;20025;-59
2022/04/24 11:30:20;;;;;;;0.45;0.45;;;;;;;17.86;22.11;98340.16;5052641;28;20390;-58
2022/04/24 11:33:04;;;;;;;2.78;0.70;;;;;;;17.91;21.73;98332.91;5052393;28;20044;-59
2022/04/24 11:35:31;;;;;;;0.20;0.20;;;;;;;17.92;21.81;98340.09;5051873;28;20036;-61
2022/04/24 11:37:57;;;;;;;0.10;0.10;;;;;;;17.97;22.08;98337.28;5052332;28;20036;-58
2022/04/24 11:40:23;;;;;;;0.35;0.35;;;;;;;18.01;21.68;98330.84;5051207;28;20495;-60
2022/04/24 11:42:49;;;;;;;0.10;0.10;;;;;;;17.99;21.93;98340.59;5051825;28;20048;-61